Airport View

Enter AWOS ICAO identifier for current METAR.

ex. KFNL

KEND 112056Z AUTO 16015G22KT 10SM CLR 12/01 A3030 RMK AO2 SLP270 T01160007

11 Dec 2019 21:54

Other Area AWOS: KWDG - KBKN - KJWG - KGOK

TAF KEND 111801Z 1118/1224 18012G18KT 9999 SCT250 QNH3019INS BECMG 1205/1206 17015KT 9999 SCT200 530054 QNH3013INS BECMG 1213/1214 19012KT 9999 FEW021 SCT200 510052 QNH3015INS BECMG 1215/1216 18015G25KT 9999 SCT020 SCT200 QNH3016INS BECMG 1217/1218 19012G20KT 9999 BKN020 QNH3007INS BECMG 1222/1223 VRB06KT 9999 BKN025 QNH3005INS TX12/1121Z TN02/1212Z